Terminal Aerodrome Forecast
Issued by NWS

Home | Current Version | Previous Version | Text Only | Print | Product List | Glossary On
Versions: 1 2 3 4 5 6 7 8 9 10 11 12 13 14 15 16 17 18 19 20 21 22 23 24 25 26 27 28 29 30 31 32 33 34 35
000
FTUS43 KLOT 171900 AAA
TAFORD
TAF AMD
KORD 171934Z 1720/1824 26005KT P6SM FEW040 SCT250
     FM172200 09008KT P6SM FEW040 SCT080
     FM180000 07005KT P6SM FEW100
     FM180300 VRB02KT P6SM SKC
     FM181400 03006KT P6SM BKN012 OVC050
     FM182000 06010KT P6SM FEW015 SCT050 BKN250=

USA.gov is the U.S. government's official web portal to all federal, state and local government web resources and services.